Time,TemperatureF,DewpointF,PressureIn,WindDirection,WindDirectionDegrees,WindSpeedMPH,WindSpeedGustMPH,Humidity,HourlyPrecipIn,Conditions,Clouds,dailyrainin,SoftwareType,DateUTC
2013-08-13 00:01:00,65.1,27.5,30.00,SW,226,5.8,7.6,24,0.00,,,0.00,VWS V14.01,2013-08-13 07:01:00,
2013-08-13 00:06:00,64.9,27.3,30.00,SW,233,4.9,5.8,24,0.00,,,0.00,VWS V14.01,2013-08-13 07:06:00,
2013-08-13 00:12:00,64.8,27.2,30.00,WSW,242,8.3,8.3,24,0.00,,,0.00,VWS V14.01,2013-08-13 07:12:00,
2013-08-13 00:18:00,64.4,26.9,30.00,SSW,210,5.8,5.8,24,0.00,,,0.00,VWS V14.01,2013-08-13 07:18:00,
2013-08-13 00:23:00,64.4,26.9,30.00,WNW,300,5.4,11.0,24,0.00,,,0.00,VWS V14.01,2013-08-13 07:23:00,
2013-08-13 00:29:00,64.2,26.7,30.00,SW,217,3.1,5.8,24,0.00,,,0.00,VWS V14.01,2013-08-13 07:29:00,
2013-08-13 00:34:00,64.2,26.7,30.00,SW,219,5.8,7.6,24,0.00,,,0.00,VWS V14.01,2013-08-13 07:34:00,
2013-08-13 00:40:00,64.0,26.5,30.00,WSW,242,2.7,5.8,24,0.00,,,0.00,VWS V14.01,2013-08-13 07:40:00,
2013-08-13 00:46:00,64.0,26.5,30.00,SW,224,9.6,9.6,24,0.00,,,0.00,VWS V14.01,2013-08-13 07:46:00,
2013-08-13 00:51:00,64.0,26.5,30.00,SSW,201,5.4,7.6,24,0.00,,,0.00,VWS V14.01,2013-08-13 07:51:00,
2013-08-13 00:56:00,63.9,26.4,30.00,WSW,241,3.1,5.4,24,0.00,,,0.00,VWS V14.01,2013-08-13 07:56:00,
2013-08-13 01:01:00,63.9,26.4,30.00,NW,317,0.0,5.8,24,0.00,,,0.00,VWS V14.01,2013-08-13 08:01:00,
2013-08-13 01:07:00,63.9,26.4,30.00,WNW,303,2.7,4.0,24,0.00,,,0.00,VWS V14.01,2013-08-13 08:07:00,
2013-08-13 01:13:00,63.9,26.4,30.00,SW,233,5.4,5.4,24,0.00,,,0.00,VWS V14.01,2013-08-13 08:13:00,
2013-08-13 01:19:00,63.7,26.2,30.00,SW,224,4.0,4.0,24,0.00,,,0.00,VWS V14.01,2013-08-13 08:19:00,
2013-08-13 01:25:00,63.5,26.1,30.00,West,277,0.0,3.1,24,0.00,,,0.00,VWS V14.01,2013-08-13 08:25:00,
2013-08-13 01:30:00,63.5,26.1,30.00,SW,218,0.0,3.6,24,0.00,,,0.00,VWS V14.01,2013-08-13 08:30:00,
2013-08-13 01:35:00,63.3,25.9,30.00,WSW,249,0.0,0.0,24,0.00,,,0.00,VWS V14.01,2013-08-13 08:35:00,
2013-08-13 01:41:00,63.1,25.8,30.00,West,267,0.0,3.6,24,0.00,,,0.00,VWS V14.01,2013-08-13 08:41:00,
2013-08-13 01:46:00,63.3,25.9,30.00,WSW,255,4.5,5.8,24,0.00,,,0.00,VWS V14.01,2013-08-13 08:46:00,
2013-08-13 01:51:00,63.0,25.6,30.00,SW,227,3.6,8.7,24,0.00,,,0.00,VWS V14.01,2013-08-13 08:51:00,
2013-08-13 01:57:00,62.8,25.5,30.00,SW,219,0.0,4.0,24,0.00,,,0.00,VWS V14.01,2013-08-13 08:57:00,
2013-08-13 02:03:00,62.6,25.3,30.00,SW,226,0.0,0.0,24,0.00,,,0.00,VWS V14.01,2013-08-13 09:03:00,
2013-08-13 02:09:00,62.6,25.3,30.00,SW,234,3.1,6.3,24,0.00,,,0.00,VWS V14.01,2013-08-13 09:09:00,
2013-08-13 02:14:00,62.4,26.2,30.00,SW,217,3.6,5.4,25,0.00,,,0.00,VWS V14.01,2013-08-13 09:14:00,
2013-08-13 02:19:00,62.4,26.2,30.00,WSW,247,3.6,8.1,25,0.00,,,0.00,VWS V14.01,2013-08-13 09:19:00,
2013-08-13 02:25:00,62.2,26.0,30.00,West,278,0.0,0.0,25,0.00,,,0.00,VWS V14.01,2013-08-13 09:25:00,
2013-08-13 02:30:00,62.2,26.0,30.00,West,274,0.0,0.0,25,0.00,,,0.00,VWS V14.01,2013-08-13 09:30:00,
2013-08-13 02:35:00,62.1,25.9,30.00,WSW,244,4.9,5.8,25,0.00,,,0.00,VWS V14.01,2013-08-13 09:35:00,
2013-08-13 02:41:00,61.9,25.7,30.00,WSW,238,3.6,3.6,25,0.00,,,0.00,VWS V14.01,2013-08-13 09:41:00,
2013-08-13 02:46:00,62.1,25.9,30.00,West,270,0.0,5.4,25,0.00,,,0.00,VWS V14.01,2013-08-13 09:46:00,
2013-08-13 02:52:00,62.1,25.9,30.00,West,277,0.0,2.2,25,0.00,,,0.00,VWS V14.01,2013-08-13 09:52:00,
2013-08-13 02:57:00,61.9,25.7,30.00,SW,214,4.0,6.3,25,0.00,,,0.00,VWS V14.01,2013-08-13 09:57:00,
2013-08-13 03:03:00,61.9,25.7,30.00,SSW,211,0.0,0.0,25,0.00,,,0.00,VWS V14.01,2013-08-13 10:03:00,
2013-08-13 03:09:00,61.7,25.5,30.00,SW,227,4.9,4.9,25,0.00,,,0.00,VWS V14.01,2013-08-13 10:09:00,
2013-08-13 03:14:00,61.7,25.5,30.00,West,261,0.0,0.0,25,0.00,,,0.00,VWS V14.01,2013-08-13 10:14:00,
2013-08-13 03:20:00,61.5,25.4,30.00,WNW,300,0.0,2.7,25,0.00,,,0.00,VWS V14.01,2013-08-13 10:20:00,
2013-08-13 03:25:00,61.5,25.4,30.00,WSW,250,0.0,4.0,25,0.00,,,0.00,VWS V14.01,2013-08-13 10:25:00,
2013-08-13 03:31:00,61.3,25.2,30.00,West,267,0.0,0.0,25,0.00,,,0.00,VWS V14.01,2013-08-13 10:31:00,
2013-08-13 03:37:00,61.3,25.2,30.00,WNW,291,0.0,3.6,25,0.00,,,0.00,VWS V14.01,2013-08-13 10:37:00,
2013-08-13 03:42:00,61.5,25.4,30.00,West,281,0.0,8.3,25,0.00,,,0.00,VWS V14.01,2013-08-13 10:42:00,
2013-08-13 03:48:00,61.5,25.4,30.00,SW,220,4.9,4.9,25,0.00,,,0.00,VWS V14.01,2013-08-13 10:48:00,
2013-08-13 03:53:00,61.3,25.2,30.00,SW,221,10.5,10.5,25,0.00,,,0.00,VWS V14.01,2013-08-13 10:53:00,
2013-08-13 03:59:00,61.5,25.4,30.00,West,278,0.0,6.3,25,0.00,,,0.00,VWS V14.01,2013-08-13 10:59:00,
2013-08-13 04:04:00,61.7,25.5,30.00,WNW,301,4.0,6.3,25,0.00,,,0.00,VWS V14.01,2013-08-13 11:04:00,
2013-08-13 04:09:00,61.9,25.7,30.00,SW,230,8.1,11.0,25,0.00,,,0.00,VWS V14.01,2013-08-13 11:09:00,
2013-08-13 04:15:00,61.9,25.7,30.00,SSW,196,8.7,8.7,25,0.00,,,0.00,VWS V14.01,2013-08-13 11:15:00,
2013-08-13 04:20:00,61.7,25.5,30.00,NW,315,0.0,5.4,25,0.00,,,0.00,VWS V14.01,2013-08-13 11:20:00,
2013-08-13 04:26:00,61.7,25.5,30.00,WSW,258,2.2,2.2,25,0.00,,,0.00,VWS V14.01,2013-08-13 11:26:00,
2013-08-13 04:31:00,61.5,25.4,30.00,SW,236,4.0,4.0,25,0.00,,,0.00,VWS V14.01,2013-08-13 11:31:00,
2013-08-13 04:37:00,61.5,25.4,30.00,NW,316,0.0,3.6,25,0.00,,,0.00,VWS V14.01,2013-08-13 11:37:00,
2013-08-13 04:42:00,61.2,25.1,30.00,WNW,302,0.0,0.0,25,0.00,,,0.00,VWS V14.01,2013-08-13 11:42:00,
2013-08-13 04:47:00,61.2,25.1,30.00,WSW,247,0.0,3.6,25,0.00,,,0.00,VWS V14.01,2013-08-13 11:47:00,
2013-08-13 04:53:00,61.0,24.9,30.00,WNW,286,0.0,6.3,25,0.00,,,0.00,VWS V14.01,2013-08-13 11:53:00,
2013-08-13 04:58:00,61.2,25.1,30.00,NNE,31,0.0,0.0,25,0.00,,,0.00,VWS V14.01,2013-08-13 11:58:00,
2013-08-13 05:04:00,61.0,24.9,30.00,SW,221,0.0,0.0,25,0.00,,,0.00,VWS V14.01,2013-08-13 12:04:00,
2013-08-13 05:09:00,60.8,24.8,30.00,West,262,0.0,0.0,25,0.00,,,0.00,VWS V14.01,2013-08-13 12:09:00,
2013-08-13 05:15:00,60.8,24.8,30.00,WNW,298,0.0,0.0,25,0.00,,,0.00,VWS V14.01,2013-08-13 12:15:00,
2013-08-13 05:20:00,60.8,24.8,30.00,SSW,208,3.1,4.0,25,0.00,,,0.00,VWS V14.01,2013-08-13 12:20:00,
2013-08-13 05:25:00,60.8,24.8,30.00,WNW,303,2.2,2.2,25,0.00,,,0.00,VWS V14.01,2013-08-13 12:25:00,
2013-08-13 05:31:00,60.8,24.8,30.00,South,169,4.9,4.9,25,0.00,,,0.00,VWS V14.01,2013-08-13 12:31:00,
2013-08-13 05:37:00,60.8,24.8,30.00,WNW,289,0.0,0.0,25,0.00,,,0.00,VWS V14.01,2013-08-13 12:37:00,
2013-08-13 05:43:00,60.8,24.8,30.00,SW,226,5.8,6.3,25,0.00,,,0.00,VWS V14.01,2013-08-13 12:43:00,
2013-08-13 05:48:00,60.8,24.8,30.00,SW,229,0.0,0.0,25,0.00,,,0.00,VWS V14.01,2013-08-13 12:48:00,
2013-08-13 05:54:00,60.6,24.6,30.00,West,269,7.6,7.6,25,0.00,,,0.00,VWS V14.01,2013-08-13 12:54:00,
2013-08-13 05:59:00,60.6,24.6,30.00,SW,234,4.9,10.5,25,0.00,,,0.00,VWS V14.01,2013-08-13 12:59:00,
2013-08-13 06:04:00,60.6,24.6,30.00,SW,224,6.3,7.6,25,0.00,,,0.00,VWS V14.01,2013-08-13 13:04:00,
2013-08-13 06:10:00,60.4,24.5,30.00,SW,229,8.1,8.3,25,0.00,,,0.00,VWS V14.01,2013-08-13 13:10:00,
2013-08-13 06:15:00,60.6,24.6,30.00,West,262,5.4,5.8,25,0.00,,,0.00,VWS V14.01,2013-08-13 13:15:00,
2013-08-13 06:21:00,60.1,24.2,30.00,WSW,239,0.0,4.9,25,0.00,,,0.00,VWS V14.01,2013-08-13 13:21:00,
2013-08-13 06:26:00,59.7,23.9,30.03,WNW,283,0.0,4.5,25,0.00,,,0.00,VWS V14.01,2013-08-13 13:26:00,
2013-08-13 06:32:00,59.7,23.9,30.03,WNW,290,0.0,0.0,25,0.00,,,0.00,VWS V14.01,2013-08-13 13:32:00,
2013-08-13 06:38:00,59.7,23.9,30.03,WNW,286,0.0,0.0,25,0.00,,,0.00,VWS V14.01,2013-08-13 13:38:00,
2013-08-13 06:43:00,59.0,23.2,30.03,NW,325,0.0,0.0,25,0.00,,,0.00,VWS V14.01,2013-08-13 13:43:00,
2013-08-13 06:48:00,58.6,22.9,30.03,NNW,342,0.0,0.0,25,0.00,,,0.00,VWS V14.01,2013-08-13 13:48:00,
2013-08-13 06:54:00,58.6,22.9,30.03,WNW,289,0.0,0.0,25,0.00,,,0.00,VWS V14.01,2013-08-13 13:54:00,
2013-08-13 07:00:00,58.6,22.9,30.03,SW,236,0.0,2.7,25,0.00,,,0.00,VWS V14.01,2013-08-13 14:00:00,
2013-08-13 07:04:00,59.4,23.6,30.03,NW,304,2.7,2.7,25,0.00,,,0.00,VWS V14.01,2013-08-13 14:04:00,
2013-08-13 07:10:00,59.7,23.9,30.03,West,266,5.4,5.8,25,0.00,,,0.00,VWS V14.01,2013-08-13 14:10:00,
2013-08-13 07:15:00,59.9,24.0,30.03,WSW,250,0.0,3.6,25,0.00,,,0.00,VWS V14.01,2013-08-13 14:15:00,
2013-08-13 07:21:00,59.7,23.9,30.03,West,276,0.0,0.0,25,0.00,,,0.00,VWS V14.01,2013-08-13 14:21:00,
2013-08-13 07:26:00,59.9,24.0,30.03,WSW,240,0.0,0.0,25,0.00,,,0.00,VWS V14.01,2013-08-13 14:26:00,
2013-08-13 07:32:00,60.1,24.2,30.03,WSW,248,5.4,5.4,25,0.00,,,0.00,VWS V14.01,2013-08-13 14:32:00,
2013-08-13 07:37:00,60.1,24.2,30.03,NNW,330,0.0,0.0,25,0.00,,,0.00,VWS V14.01,2013-08-13 14:37:00,
2013-08-13 07:43:00,60.3,24.3,30.03,SW,216,4.0,5.4,25,0.00,,,0.00,VWS V14.01,2013-08-13 14:43:00,
2013-08-13 07:48:00,60.6,24.6,30.03,WSW,248,7.6,8.7,25,0.00,,,0.00,VWS V14.01,2013-08-13 14:48:00,
2013-08-13 07:54:00,60.6,24.6,30.03,SW,230,4.0,8.1,25,0.00,,,0.00,VWS V14.01,2013-08-13 14:54:00,
2013-08-13 08:00:00,62.4,26.2,30.03,SW,234,0.0,3.6,25,0.00,,,0.00,VWS V14.01,2013-08-13 15:00:00,
2013-08-13 08:06:00,62.2,25.0,30.03,SW,220,2.7,2.7,24,0.00,,,0.00,VWS V14.01,2013-08-13 15:06:00,
2013-08-13 08:11:00,62.1,25.9,30.03,SW,225,0.0,0.0,25,0.00,,,0.00,VWS V14.01,2013-08-13 15:11:00,
2013-08-13 08:16:00,61.9,25.7,30.03,SW,234,4.9,6.3,25,0.00,,,0.00,VWS V14.01,2013-08-13 15:16:00,
2013-08-13 08:22:00,62.2,26.0,30.03,SW,235,5.8,6.3,25,0.00,,,0.00,VWS V14.01,2013-08-13 15:22:00,
2013-08-13 08:27:00,62.2,26.0,30.03,SSW,207,5.4,5.4,25,0.00,,,0.00,VWS V14.01,2013-08-13 15:27:00,
2013-08-13 08:33:00,62.4,26.2,30.03,SW,216,0.0,4.0,25,0.00,,,0.00,VWS V14.01,2013-08-13 15:33:00,
2013-08-13 08:38:00,62.4,26.2,30.03,SW,219,4.0,6.3,25,0.00,,,0.00,VWS V14.01,2013-08-13 15:38:00,
2013-08-13 08:44:00,62.4,26.2,30.03,WSW,249,0.0,0.0,25,0.00,,,0.00,VWS V14.01,2013-08-13 15:44:00,
2013-08-13 08:50:00,62.4,26.2,30.03,WNW,298,0.0,0.0,25,0.00,,,0.00,VWS V14.01,2013-08-13 15:50:00,
2013-08-13 08:55:00,62.6,25.3,30.03,SW,236,3.1,5.8,24,0.00,,,0.00,VWS V14.01,2013-08-13 15:55:00,
2013-08-13 09:00:00,62.8,25.5,30.03,SW,217,4.9,4.9,24,0.00,,,0.00,VWS V14.01,2013-08-13 16:00:00,
2013-08-13 09:05:00,62.6,25.3,30.03,SW,223,3.6,4.5,24,0.00,,,0.00,VWS V14.01,2013-08-13 16:05:00,
2013-08-13 09:11:00,62.6,25.3,30.03,SW,214,3.6,3.6,24,0.00,,,0.00,VWS V14.01,2013-08-13 16:11:00,
2013-08-13 09:16:00,62.6,25.3,30.03,SE,142,2.7,2.7,24,0.00,,,0.00,VWS V14.01,2013-08-13 16:16:00,
2013-08-13 09:22:00,62.2,26.0,30.03,SSE,149,0.0,0.0,25,0.00,,,0.00,VWS V14.01,2013-08-13 16:22:00,
2013-08-13 09:27:00,62.2,26.0,30.03,South,171,0.0,0.0,25,0.00,,,0.00,VWS V14.01,2013-08-13 16:27:00,
2013-08-13 09:32:00,62.4,26.2,30.03,South,171,0.0,0.0,25,0.00,,,0.00,VWS V14.01,2013-08-13 16:32:00,
2013-08-13 09:37:00,63.0,25.6,30.03,South,171,0.0,0.0,24,0.00,,,0.00,VWS V14.01,2013-08-13 16:37:00,
2013-08-13 09:43:00,63.3,25.9,30.03,South,171,0.0,0.0,24,0.00,,,0.00,VWS V14.01,2013-08-13 16:43:00,
2013-08-13 09:49:00,63.7,26.2,30.03,South,171,0.0,0.0,24,0.00,,,0.00,VWS V14.01,2013-08-13 16:49:00,
2013-08-13 09:54:00,63.9,26.4,30.03,South,171,0.0,0.0,24,0.00,,,0.00,VWS V14.01,2013-08-13 16:54:00,
2013-08-13 10:00:00,64.4,26.9,30.03,South,171,0.0,0.0,24,0.00,,,0.00,VWS V14.01,2013-08-13 17:00:00,
2013-08-13 10:05:00,64.8,27.2,30.03,South,171,0.0,0.0,24,0.00,,,0.00,VWS V14.01,2013-08-13 17:05:00,
2013-08-13 10:12:00,64.9,27.3,30.03,South,171,0.0,0.0,24,0.00,,,0.00,VWS V14.01,2013-08-13 17:12:00,
2013-08-13 10:18:00,65.1,27.5,30.03,South,171,0.0,0.0,24,0.00,,,0.00,VWS V14.01,2013-08-13 17:18:00,
2013-08-13 10:23:00,65.5,27.8,30.03,South,172,0.0,0.0,24,0.00,,,0.00,VWS V14.01,2013-08-13 17:23:00,
2013-08-13 10:28:00,65.7,27.9,30.03,South,172,0.0,0.0,24,0.00,,,0.00,VWS V14.01,2013-08-13 17:28:00,
2013-08-13 10:33:00,65.8,28.1,30.03,South,172,0.0,0.0,24,0.00,,,0.00,VWS V14.01,2013-08-13 17:33:00,
2013-08-13 10:39:00,66.2,27.3,30.03,South,172,0.0,0.0,23,0.00,,,0.00,VWS V14.01,2013-08-13 17:39:00,
2013-08-13 10:45:00,66.4,27.5,30.03,South,172,0.0,0.0,23,0.00,,,0.00,VWS V14.01,2013-08-13 17:45:00,
2013-08-13 10:50:00,66.6,27.6,30.03,South,172,0.0,0.0,23,0.00,,,0.00,VWS V14.01,2013-08-13 17:50:00,
2013-08-13 10:56:00,66.7,27.8,30.03,South,173,0.0,0.0,23,0.00,,,0.00,VWS V14.01,2013-08-13 17:56:00,
2013-08-13 11:01:00,66.9,27.9,30.03,South,173,0.0,0.0,23,0.00,,,0.00,VWS V14.01,2013-08-13 18:01:00,
2013-08-13 11:06:00,66.9,27.9,30.03,South,173,0.0,0.0,23,0.00,,,0.00,VWS V14.01,2013-08-13 18:06:00,
2013-08-13 11:11:00,67.1,28.1,30.03,South,173,0.0,0.0,23,0.00,,,0.00,VWS V14.01,2013-08-13 18:11:00,
2013-08-13 11:17:00,67.8,28.7,30.03,South,173,0.0,0.0,23,0.00,,,0.00,VWS V14.01,2013-08-13 18:17:00,
2013-08-13 11:23:00,68.5,29.3,30.03,South,173,0.0,0.0,23,0.00,,,0.00,VWS V14.01,2013-08-13 18:23:00,
2013-08-13 11:28:00,68.9,29.6,30.03,South,173,0.0,0.0,23,0.00,,,0.00,VWS V14.01,2013-08-13 18:28:00,
2013-08-13 11:34:00,68.7,29.5,30.03,ESE,108,3.6,4.0,23,0.00,,,0.00,VWS V14.01,2013-08-13 18:34:00,
2013-08-13 11:39:00,68.4,29.1,30.03,ESE,107,3.6,4.0,23,0.00,,,0.00,VWS V14.01,2013-08-13 18:39:00,
2013-08-13 11:45:00,68.4,29.1,30.03,ESE,107,0.0,0.0,23,0.00,,,0.00,VWS V14.01,2013-08-13 18:45:00,
2013-08-13 11:50:00,68.4,29.1,30.03,East,97,3.1,3.6,23,0.00,,,0.00,VWS V14.01,2013-08-13 18:50:00,
2013-08-13 11:55:00,68.7,29.5,30.00,East,93,4.0,4.0,23,0.00,,,0.00,VWS V14.01,2013-08-13 18:55:00,
2013-08-13 12:00:00,69.4,30.1,30.00,East,94,0.0,2.7,23,0.00,,,0.00,VWS V14.01,2013-08-13 19:00:00,
2013-08-13 12:06:00,69.8,29.3,30.00,East,94,0.0,0.0,22,0.00,,,0.00,VWS V14.01,2013-08-13 19:06:00,
2013-08-13 12:11:00,70.2,29.6,30.00,East,94,0.0,0.0,22,0.00,,,0.00,VWS V14.01,2013-08-13 19:11:00,
2013-08-13 12:16:00,70.3,29.7,30.00,East,90,0.0,0.0,22,0.00,,,0.00,VWS V14.01,2013-08-13 19:16:00,
2013-08-13 12:21:00,71.1,30.3,30.00,East,100,0.0,0.0,22,0.00,,,0.00,VWS V14.01,2013-08-13 19:21:00,
2013-08-13 12:26:00,71.8,29.8,30.00,ESE,102,0.0,0.0,21,0.00,,,0.00,VWS V14.01,2013-08-13 19:26:00,
2013-08-13 12:32:00,72.3,27.8,30.00,East,84,0.0,0.0,19,0.00,,,0.00,VWS V14.01,2013-08-13 19:32:00,
2013-08-13 12:37:00,72.9,28.2,30.00,East,79,0.0,0.0,19,0.00,,,0.00,VWS V14.01,2013-08-13 19:37:00,
2013-08-13 12:42:00,73.0,28.4,30.00,East,79,0.0,0.0,19,0.00,,,0.00,VWS V14.01,2013-08-13 19:42:00,
2013-08-13 12:48:00,73.8,31.4,30.00,East,98,3.6,3.6,21,0.00,,,0.00,VWS V14.01,2013-08-13 19:48:00,
2013-08-13 12:53:00,74.1,31.7,30.00,ESE,115,3.6,4.9,21,0.00,,,0.00,VWS V14.01,2013-08-13 19:53:00,
2013-08-13 12:59:00,74.8,32.3,30.00,ESE,120,5.4,5.8,21,0.00,,,0.00,VWS V14.01,2013-08-13 19:59:00,
2013-08-13 13:04:00,74.7,32.2,30.00,ESE,104,0.0,0.0,21,0.00,,,0.00,VWS V14.01,2013-08-13 20:04:00,
2013-08-13 13:09:00,75.2,31.4,29.97,East,97,0.0,2.7,20,0.00,,,0.00,VWS V14.01,2013-08-13 20:09:00,
2013-08-13 13:14:00,75.7,31.9,29.97,ESE,111,0.0,3.6,20,0.00,,,0.00,VWS V14.01,2013-08-13 20:14:00,
2013-08-13 13:20:00,76.5,32.5,29.97,SE,136,0.0,0.0,20,0.00,,,0.00,VWS V14.01,2013-08-13 20:20:00,
2013-08-13 13:26:00,77.2,33.0,29.97,ESE,104,0.0,0.0,20,0.00,,,0.00,VWS V14.01,2013-08-13 20:26:00,
2013-08-13 13:31:00,77.2,30.4,29.97,SSW,195,0.0,0.0,18,0.00,,,0.00,VWS V14.01,2013-08-13 20:31:00,
2013-08-13 13:37:00,77.4,30.6,29.97,SE,131,0.0,0.0,18,0.00,,,0.00,VWS V14.01,2013-08-13 20:37:00,
2013-08-13 13:42:00,78.8,27.3,29.97,SE,131,0.0,0.0,15,0.00,,,0.00,VWS V14.01,2013-08-13 20:42:00,
2013-08-13 13:47:00,79.0,30.5,29.97,SE,131,0.0,0.0,17,0.00,,,0.00,VWS V14.01,2013-08-13 20:47:00,
2013-08-13 13:52:00,79.7,31.1,29.97,East,89,3.1,4.9,17,0.00,,,0.00,VWS V14.01,2013-08-13 20:52:00,
2013-08-13 13:58:00,80.2,28.4,29.97,ESE,105,0.0,0.0,15,0.00,,,0.00,VWS V14.01,2013-08-13 20:58:00,
2013-08-13 14:04:00,80.8,27.2,29.97,East,97,0.0,0.0,14,0.00,,,0.00,VWS V14.01,2013-08-13 21:04:00,
2013-08-13 14:09:00,80.8,27.2,29.97,East,97,0.0,0.0,14,0.00,,,0.00,VWS V14.01,2013-08-13 21:09:00,
2013-08-13 14:15:00,81.0,32.1,29.97,ESE,122,3.6,3.6,17,0.00,,,0.00,VWS V14.01,2013-08-13 21:15:00,
2013-08-13 14:20:00,80.2,28.4,29.97,SE,127,0.0,0.0,15,0.00,,,0.00,VWS V14.01,2013-08-13 21:20:00,
2013-08-13 14:26:00,81.0,27.3,29.97,SE,125,0.0,0.0,14,0.00,,,0.00,VWS V14.01,2013-08-13 21:26:00,
2013-08-13 14:31:00,81.5,27.8,29.97,SE,125,0.0,0.0,14,0.00,,,0.00,VWS V14.01,2013-08-13 21:31:00,
2013-08-13 14:36:00,82.0,28.2,29.97,SE,125,0.0,0.0,14,0.00,,,0.00,VWS V14.01,2013-08-13 21:36:00,
2013-08-13 14:42:00,81.9,28.0,29.97,ESE,123,0.0,0.0,14,0.00,,,0.00,VWS V14.01,2013-08-13 21:42:00,
2013-08-13 14:47:00,81.7,32.7,29.97,ESE,123,0.0,0.0,17,0.00,,,0.00,VWS V14.01,2013-08-13 21:47:00,
2013-08-13 14:52:00,81.9,28.0,29.94,SE,126,0.0,0.0,14,0.00,,,0.00,VWS V14.01,2013-08-13 21:52:00,
2013-08-13 14:58:00,81.1,27.5,29.94,SE,137,0.0,0.0,14,0.00,,,0.00,VWS V14.01,2013-08-13 21:58:00,
2013-08-13 15:04:00,81.3,27.6,29.94,SE,137,0.0,0.0,14,0.00,,,0.00,VWS V14.01,2013-08-13 22:04:00,
2013-08-13 15:09:00,81.7,27.9,29.94,SE,138,0.0,0.0,14,0.00,,,0.00,VWS V14.01,2013-08-13 22:09:00,
2013-08-13 15:14:00,82.2,28.3,29.94,SE,139,0.0,0.0,14,0.00,,,0.00,VWS V14.01,2013-08-13 22:14:00,
2013-08-13 15:20:00,82.4,28.5,29.94,SE,139,0.0,0.0,14,0.00,,,0.00,VWS V14.01,2013-08-13 22:20:00,
2013-08-13 15:26:00,82.6,28.6,29.94,SE,139,0.0,0.0,14,0.00,,,0.00,VWS V14.01,2013-08-13 22:26:00,
2013-08-13 15:30:00,82.6,28.6,29.94,SE,146,0.0,0.0,14,0.00,,,0.00,VWS V14.01,2013-08-13 22:30:00,
2013-08-13 15:36:00,82.6,28.6,29.94,SE,146,0.0,0.0,14,0.00,,,0.00,VWS V14.01,2013-08-13 22:36:00,
2013-08-13 15:42:00,82.6,28.6,29.94,SW,216,0.0,0.0,14,0.00,,,0.00,VWS V14.01,2013-08-13 22:42:00,
2013-08-13 15:47:00,82.2,28.3,29.94,SW,214,0.0,0.0,14,0.00,,,0.00,VWS V14.01,2013-08-13 22:47:00,
2013-08-13 15:53:00,82.4,28.5,29.94,SSW,212,0.0,0.0,14,0.00,,,0.00,VWS V14.01,2013-08-13 22:53:00,
2013-08-13 15:59:00,82.2,28.3,29.94,SSW,213,0.0,0.0,14,0.00,,,0.00,VWS V14.01,2013-08-13 22:59:00,
2013-08-13 16:04:00,81.7,35.5,29.94,SSW,206,0.0,0.0,19,0.00,,,0.00,VWS V14.01,2013-08-13 23:04:00,
2013-08-13 16:09:00,80.8,36.0,29.94,SSW,207,0.0,0.0,20,0.00,,,0.00,VWS V14.01,2013-08-13 23:09:00,
2013-08-13 16:14:00,80.2,35.6,29.94,SW,219,0.0,0.0,20,0.00,,,0.00,VWS V14.01,2013-08-13 23:14:00,
2013-08-13 16:19:00,80.2,31.5,29.94,SW,221,0.0,0.0,17,0.00,,,0.00,VWS V14.01,2013-08-13 23:19:00,
2013-08-13 16:25:00,80.6,31.8,29.94,SW,226,0.0,0.0,17,0.00,,,0.00,VWS V14.01,2013-08-13 23:25:00,
2013-08-13 16:30:00,81.5,27.8,29.94,SW,232,0.0,0.0,14,0.00,,,0.00,VWS V14.01,2013-08-13 23:30:00,
2013-08-13 16:36:00,82.4,28.5,29.94,SW,227,4.5,4.9,14,0.00,,,0.00,VWS V14.01,2013-08-13 23:36:00,
2013-08-13 16:41:00,82.9,28.9,29.94,SW,224,4.0,4.5,14,0.00,,,0.00,VWS V14.01,2013-08-13 23:41:00,
2013-08-13 16:47:00,83.1,29.0,29.94,SW,225,4.9,4.9,14,0.00,,,0.00,VWS V14.01,2013-08-13 23:47:00,
2013-08-13 16:52:00,83.5,32.6,29.91,SW,224,4.0,4.9,16,0.00,,,0.00,VWS V14.01,2013-08-13 23:52:00,
2013-08-13 16:58:00,82.2,33.1,29.91,SW,226,4.0,4.5,17,0.00,,,0.00,VWS V14.01,2013-08-13 23:58:00,
2013-08-13 17:04:00,81.7,32.7,29.91,SW,226,3.6,4.0,17,0.00,,,0.00,VWS V14.01,2013-08-14 00:04:00,
2013-08-13 17:10:00,82.2,33.1,29.91,SW,221,0.0,3.1,17,0.00,,,0.00,VWS V14.01,2013-08-14 00:10:00,
2013-08-13 17:15:00,81.7,35.5,29.91,SW,221,0.0,0.0,19,0.00,,,0.00,VWS V14.01,2013-08-14 00:15:00,
2013-08-13 17:21:00,80.8,34.7,29.91,SW,221,0.0,0.0,19,0.00,,,0.00,VWS V14.01,2013-08-14 00:21:00,
2013-08-13 17:27:00,80.2,35.6,29.91,SW,226,0.0,0.0,20,0.00,,,0.00,VWS V14.01,2013-08-14 00:27:00,
2013-08-13 17:32:00,79.7,36.3,29.91,SW,229,0.0,0.0,21,0.00,,,0.00,VWS V14.01,2013-08-14 00:32:00,
2013-08-13 17:38:00,79.3,34.8,29.91,SW,229,0.0,0.0,20,0.00,,,0.00,VWS V14.01,2013-08-14 00:38:00,
2013-08-13 17:43:00,79.3,34.8,29.91,SW,227,0.0,0.0,20,0.00,,,0.00,VWS V14.01,2013-08-14 00:43:00,
2013-08-13 17:49:00,79.3,34.8,29.91,SW,226,0.0,0.0,20,0.00,,,0.00,VWS V14.01,2013-08-14 00:49:00,
2013-08-13 17:54:00,79.3,34.8,29.91,SW,230,4.0,5.4,20,0.00,,,0.00,VWS V14.01,2013-08-14 00:54:00,
2013-08-13 18:00:00,79.3,34.8,29.91,SW,221,0.0,0.0,20,0.00,,,0.00,VWS V14.01,2013-08-14 01:00:00,
2013-08-13 18:06:00,79.0,34.5,29.91,SW,222,0.0,0.0,20,0.00,,,0.00,VWS V14.01,2013-08-14 01:06:00,
2013-08-13 18:11:00,78.8,34.4,29.91,NW,317,0.0,0.0,20,0.00,,,0.00,VWS V14.01,2013-08-14 01:11:00,
2013-08-13 18:17:00,78.6,34.2,29.91,NW,311,2.2,4.0,20,0.00,,,0.00,VWS V14.01,2013-08-14 01:17:00,
2013-08-13 18:23:00,78.1,31.2,29.91,NNW,341,0.0,0.0,18,0.00,,,0.00,VWS V14.01,2013-08-14 01:23:00,
2013-08-13 18:27:00,77.7,30.9,29.91,NNW,341,0.0,0.0,18,0.00,,,0.00,VWS V14.01,2013-08-14 01:27:00,
2013-08-13 18:33:00,77.9,31.0,29.91,NNW,348,0.0,0.0,18,0.00,,,0.00,VWS V14.01,2013-08-14 01:33:00,
2013-08-13 18:38:00,77.7,30.9,29.91,NNW,338,0.0,0.0,18,0.00,,,0.00,VWS V14.01,2013-08-14 01:38:00,
2013-08-13 18:44:00,77.2,30.4,29.91,North,0,0.0,0.0,18,0.00,,,0.00,VWS V14.01,2013-08-14 01:44:00,
2013-08-13 18:49:00,77.2,30.4,29.91,North,357,0.0,0.0,18,0.00,,,0.00,VWS V14.01,2013-08-14 01:49:00,
2013-08-13 18:55:00,77.9,31.0,29.91,WNW,299,0.0,0.0,18,0.00,,,0.00,VWS V14.01,2013-08-14 01:55:00,
2013-08-13 19:00:00,78.1,31.2,29.91,NNW,346,0.0,2.7,18,0.00,,,0.00,VWS V14.01,2013-08-14 02:00:00,
2013-08-13 19:05:00,78.1,31.2,29.91,NNW,331,3.6,4.0,18,0.00,,,0.00,VWS V14.01,2013-08-14 02:05:00,
2013-08-13 19:11:00,77.9,31.0,29.91,NNW,334,0.0,0.0,18,0.00,,,0.00,VWS V14.01,2013-08-14 02:11:00,
2013-08-13 19:17:00,77.2,30.4,29.91,North,350,0.0,0.0,18,0.00,,,0.00,VWS V14.01,2013-08-14 02:17:00,
2013-08-13 19:23:00,76.6,30.0,29.91,NNW,337,0.0,0.0,18,0.00,,,0.00,VWS V14.01,2013-08-14 02:23:00,
2013-08-13 19:28:00,77.0,30.3,29.91,WNW,288,0.0,0.0,18,0.00,,,0.00,VWS V14.01,2013-08-14 02:28:00,
2013-08-13 19:34:00,76.8,30.1,29.91,NNW,348,0.0,6.3,18,0.00,,,0.00,VWS V14.01,2013-08-14 02:34:00,
2013-08-13 19:40:00,77.0,30.3,29.91,West,275,0.0,0.0,18,0.00,,,0.00,VWS V14.01,2013-08-14 02:40:00,
2013-08-13 19:45:00,77.0,30.3,29.91,West,265,2.7,3.6,18,0.00,,,0.00,VWS V14.01,2013-08-14 02:45:00,
2013-08-13 19:51:00,77.0,30.3,29.91,WSW,247,0.0,0.0,18,0.00,,,0.00,VWS V14.01,2013-08-14 02:51:00,
2013-08-13 19:57:00,77.0,30.3,29.91,West,271,0.0,2.7,18,0.00,,,0.00,VWS V14.01,2013-08-14 02:57:00,
2013-08-13 20:02:00,77.0,30.3,29.91,West,280,0.0,6.3,18,0.00,,,0.00,VWS V14.01,2013-08-14 03:02:00,
2013-08-13 20:08:00,76.8,30.1,29.91,WNW,285,2.2,7.6,18,0.00,,,0.00,VWS V14.01,2013-08-14 03:08:00,
2013-08-13 20:13:00,76.6,30.0,29.91,WSW,242,2.7,7.6,18,0.00,,,0.00,VWS V14.01,2013-08-14 03:13:00,
2013-08-13 20:18:00,76.5,29.9,29.91,SW,216,3.6,5.8,18,0.00,,,0.00,VWS V14.01,2013-08-14 03:18:00,
2013-08-13 20:24:00,75.9,29.4,29.91,WNW,296,4.0,4.0,18,0.00,,,0.00,VWS V14.01,2013-08-14 03:24:00,
2013-08-13 20:29:00,75.6,29.1,29.91,SW,227,2.7,6.3,18,0.00,,,0.00,VWS V14.01,2013-08-14 03:29:00,
2013-08-13 20:35:00,75.2,28.8,29.91,SW,218,6.3,6.3,18,0.00,,,0.00,VWS V14.01,2013-08-14 03:35:00,
2013-08-13 20:40:00,75.0,28.7,29.91,WSW,249,0.0,0.0,18,0.00,,,0.00,VWS V14.01,2013-08-14 03:40:00,
2013-08-13 20:45:00,74.8,28.5,29.91,WNW,288,4.9,6.3,18,0.00,,,0.00,VWS V14.01,2013-08-14 03:45:00,
2013-08-13 20:50:00,74.5,28.2,29.91,WSW,248,4.9,4.9,18,0.00,,,0.00,VWS V14.01,2013-08-14 03:50:00,
2013-08-13 20:56:00,74.3,28.1,29.91,WSW,251,4.0,5.4,18,0.00,,,0.00,VWS V14.01,2013-08-14 03:56:00,
2013-08-13 21:01:00,74.1,27.9,29.91,WSW,247,5.4,5.4,18,0.00,,,0.00,VWS V14.01,2013-08-14 04:01:00,
2013-08-13 21:02:00,74.1,27.9,29.91,West,277,4.0,5.4,18,0.00,,,0.00,VWS V14.01,2013-08-14 04:02:00,
2013-08-13 21:03:00,73.9,27.8,29.91,SW,220,6.3,6.3,18,0.00,,,0.00,VWS V14.01,2013-08-14 04:03:00,
2013-08-13 21:08:00,73.9,27.8,29.94,SSW,211,4.0,5.4,18,0.00,,,0.00,VWS V14.01,2013-08-14 04:08:00,
2013-08-13 21:13:00,74.1,27.9,29.94,SW,227,5.4,5.4,18,0.00,,,0.00,VWS V14.01,2013-08-14 04:13:00,
2013-08-13 21:15:00,73.9,27.8,29.94,WSW,253,9.2,9.2,18,0.00,,,0.00,VWS V14.01,2013-08-14 04:15:00,
2013-08-13 21:20:00,73.8,27.6,29.94,SW,233,4.0,5.4,18,0.00,,,0.00,VWS V14.01,2013-08-14 04:20:00,
2013-08-13 21:26:00,73.4,27.4,29.94,WSW,241,5.4,8.1,18,0.00,,,0.00,VWS V14.01,2013-08-14 04:26:00,
2013-08-13 21:31:00,73.0,28.4,29.94,SW,230,6.3,6.3,19,0.00,,,0.00,VWS V14.01,2013-08-14 04:31:00,
2013-08-13 21:37:00,72.5,30.4,29.94,NW,307,5.8,8.3,21,0.00,,,0.00,VWS V14.01,2013-08-14 04:37:00,
2013-08-13 21:43:00,72.0,29.9,29.94,WSW,245,4.0,6.3,21,0.00,,,0.00,VWS V14.01,2013-08-14 04:43:00,
2013-08-13 21:48:00,71.4,30.6,29.94,West,267,5.4,5.8,22,0.00,,,0.00,VWS V14.01,2013-08-14 04:48:00,
2013-08-13 21:53:00,71.1,30.3,29.94,SW,227,3.6,4.9,22,0.00,,,0.00,VWS V14.01,2013-08-14 04:53:00,
2013-08-13 21:59:00,70.5,29.9,29.94,WSW,241,6.3,6.3,22,0.00,,,0.00,VWS V14.01,2013-08-14 04:59:00,
2013-08-13 22:04:00,70.2,29.6,29.94,WNW,300,2.7,3.6,22,0.00,,,0.00,VWS V14.01,2013-08-14 05:04:00,
2013-08-13 22:10:00,69.8,29.3,29.94,WSW,241,5.4,5.4,22,0.00,,,0.00,VWS V14.01,2013-08-14 05:10:00,
2013-08-13 22:16:00,69.4,29.0,29.94,SW,233,0.0,3.1,22,0.00,,,0.00,VWS V14.01,2013-08-14 05:16:00,
2013-08-13 22:21:00,69.1,28.7,29.94,SSW,213,3.1,5.4,22,0.00,,,0.00,VWS V14.01,2013-08-14 05:21:00,
2013-08-13 22:26:00,68.7,28.4,29.94,SW,224,2.7,4.0,22,0.00,,,0.00,VWS V14.01,2013-08-14 05:26:00,
2013-08-13 22:32:00,67.6,28.5,29.94,WNW,283,0.0,0.0,23,0.00,,,0.00,VWS V14.01,2013-08-14 05:32:00,
2013-08-13 22:38:00,66.9,27.9,29.94,North,350,0.0,0.0,23,0.00,,,0.00,VWS V14.01,2013-08-14 05:38:00,
2013-08-13 22:44:00,66.2,27.3,29.94,NNW,341,0.0,0.0,23,0.00,,,0.00,VWS V14.01,2013-08-14 05:44:00,
2013-08-13 22:49:00,66.0,27.2,29.94,NNW,338,0.0,0.0,23,0.00,,,0.00,VWS V14.01,2013-08-14 05:49:00,
2013-08-13 22:55:00,65.8,27.0,29.94,North,349,0.0,0.0,23,0.00,,,0.00,VWS V14.01,2013-08-14 05:55:00,
2013-08-13 23:00:00,65.7,26.9,29.94,North,349,0.0,0.0,23,0.00,,,0.00,VWS V14.01,2013-08-14 06:00:00,
2013-08-13 23:06:00,65.3,26.6,29.94,NNW,340,0.0,0.0,23,0.00,,,0.00,VWS V14.01,2013-08-14 06:06:00,
2013-08-13 23:11:00,65.1,26.4,29.94,NNW,341,0.0,0.0,23,0.00,,,0.00,VWS V14.01,2013-08-14 06:11:00,
2013-08-13 23:17:00,64.9,26.3,29.94,NNW,338,0.0,0.0,23,0.00,,,0.00,VWS V14.01,2013-08-14 06:17:00,
2013-08-13 23:22:00,64.8,26.1,29.94,NNW,338,0.0,0.0,23,0.00,,,0.00,VWS V14.01,2013-08-14 06:22:00,
2013-08-13 23:28:00,64.4,25.8,29.94,NNW,337,0.0,0.0,23,0.00,,,0.00,VWS V14.01,2013-08-14 06:28:00,
2013-08-13 23:34:00,64.2,26.7,29.94,NNW,339,0.0,0.0,24,0.00,,,0.00,VWS V14.01,2013-08-14 06:34:00,
2013-08-13 23:39:00,64.0,26.5,29.94,NNW,340,0.0,0.0,24,0.00,,,0.00,VWS V14.01,2013-08-14 06:39:00,
2013-08-13 23:45:00,63.9,26.4,29.94,NNW,339,0.0,0.0,24,0.00,,,0.00,VWS V14.01,2013-08-14 06:45:00,
2013-08-13 23:50:00,63.7,26.2,29.94,NNW,338,0.0,0.0,24,0.00,,,0.00,VWS V14.01,2013-08-14 06:50:00,
2013-08-13 23:56:00,63.5,26.1,29.94,NNW,340,0.0,0.0,24,0.00,,,0.00,VWS V14.01,2013-08-14 06:56:00,